sensor_id;sensor_type;location;lat;lon;timestamp;P1;durP1;ratioP1;P2;durP2;ratioP2
58665;SDS011;44436;52.872;6.520;2022-07-17T00:02:15;4.47;;;1.50;;
58665;SDS011;44436;52.872;6.520;2022-07-17T00:04:41;4.78;;;1.73;;
58665;SDS011;44436;52.872;6.520;2022-07-17T00:07:07;6.20;;;1.70;;
58665;SDS011;44436;52.872;6.520;2022-07-17T00:09:32;4.20;;;1.75;;
58665;SDS011;44436;52.872;6.520;2022-07-17T00:11:58;3.97;;;1.63;;
58665;SDS011;44436;52.872;6.520;2022-07-17T00:14:24;3.50;;;1.50;;
58665;SDS011;44436;52.872;6.520;2022-07-17T00:16:49;5.05;;;1.70;;
58665;SDS011;44436;52.872;6.520;2022-07-17T00:19:16;4.82;;;1.55;;
58665;SDS011;44436;52.872;6.520;2022-07-17T00:21:42;5.07;;;1.52;;
58665;SDS011;44436;52.872;6.520;2022-07-17T00:24:08;5.47;;;1.75;;
58665;SDS011;44436;52.872;6.520;2022-07-17T00:26:33;3.63;;;1.52;;
58665;SDS011;44436;52.872;6.520;2022-07-17T00:28:59;4.90;;;1.70;;
58665;SDS011;44436;52.872;6.520;2022-07-17T00:31:26;6.00;;;1.60;;
58665;SDS011;44436;52.872;6.520;2022-07-17T00:33:52;3.88;;;1.90;;
58665;SDS011;44436;52.872;6.520;2022-07-17T00:36:17;7.78;;;2.13;;
58665;SDS011;44436;52.872;6.520;2022-07-17T00:38:43;5.90;;;2.05;;
58665;SDS011;44436;52.872;6.520;2022-07-17T00:41:09;7.03;;;1.90;;
58665;SDS011;44436;52.872;6.520;2022-07-17T00:43:34;6.05;;;1.83;;
58665;SDS011;44436;52.872;6.520;2022-07-17T00:46:01;4.75;;;1.90;;
58665;SDS011;44436;52.872;6.520;2022-07-17T00:48:27;6.07;;;2.08;;
58665;SDS011;44436;52.872;6.520;2022-07-17T00:50:53;5.68;;;1.88;;
58665;SDS011;44436;52.872;6.520;2022-07-17T00:53:20;7.80;;;2.25;;
58665;SDS011;44436;52.872;6.520;2022-07-17T00:55:46;4.80;;;1.60;;
58665;SDS011;44436;52.872;6.520;2022-07-17T00:58:20;4.25;;;1.73;;
58665;SDS011;44436;52.872;6.520;2022-07-17T01:00:48;3.88;;;1.85;;
58665;SDS011;44436;52.872;6.520;2022-07-17T01:03:15;6.97;;;2.33;;
58665;SDS011;44436;52.872;6.520;2022-07-17T01:05:41;5.57;;;1.90;;
58665;SDS011;44436;52.872;6.520;2022-07-17T01:08:07;5.90;;;2.15;;
58665;SDS011;44436;52.872;6.520;2022-07-17T01:10:33;7.07;;;2.20;;
58665;SDS011;44436;52.872;6.520;2022-07-17T01:12:59;8.73;;;2.40;;
58665;SDS011;44436;52.872;6.520;2022-07-17T01:15:25;5.70;;;2.30;;
58665;SDS011;44436;52.872;6.520;2022-07-17T01:17:51;7.32;;;2.83;;
58665;SDS011;44436;52.872;6.520;2022-07-17T01:20:16;5.97;;;2.30;;
58665;SDS011;44436;52.872;6.520;2022-07-17T01:22:43;4.68;;;2.20;;
58665;SDS011;44436;52.872;6.520;2022-07-17T01:25:10;6.20;;;2.58;;
58665;SDS011;44436;52.872;6.520;2022-07-17T01:27:36;6.03;;;2.13;;
58665;SDS011;44436;52.872;6.520;2022-07-17T01:30:02;5.88;;;2.13;;
58665;SDS011;44436;52.872;6.520;2022-07-17T01:32:32;11.15;;;2.58;;
58665;SDS011;44436;52.872;6.520;2022-07-17T01:35:03;7.05;;;2.63;;
58665;SDS011;44436;52.872;6.520;2022-07-17T01:37:29;5.28;;;2.40;;
58665;SDS011;44436;52.872;6.520;2022-07-17T01:39:55;4.78;;;2.20;;
58665;SDS011;44436;52.872;6.520;2022-07-17T01:42:21;5.68;;;2.47;;
58665;SDS011;44436;52.872;6.520;2022-07-17T01:44:48;7.70;;;2.20;;
58665;SDS011;44436;52.872;6.520;2022-07-17T01:47:15;7.53;;;3.05;;
58665;SDS011;44436;52.872;6.520;2022-07-17T01:49:50;10.02;;;2.38;;
58665;SDS011;44436;52.872;6.520;2022-07-17T01:52:17;4.68;;;2.10;;
58665;SDS011;44436;52.872;6.520;2022-07-17T01:54:43;3.50;;;1.88;;
58665;SDS011;44436;52.872;6.520;2022-07-17T01:57:09;3.42;;;2.10;;
58665;SDS011;44436;52.872;6.520;2022-07-17T01:59:36;6.63;;;2.33;;
58665;SDS011;44436;52.872;6.520;2022-07-17T02:02:03;4.45;;;2.45;;
58665;SDS011;44436;52.872;6.520;2022-07-17T02:04:32;4.72;;;1.98;;
58665;SDS011;44436;52.872;6.520;2022-07-17T02:06:59;8.50;;;2.40;;
58665;SDS011;44436;52.872;6.520;2022-07-17T02:09:24;5.75;;;2.15;;
58665;SDS011;44436;52.872;6.520;2022-07-17T02:11:50;4.97;;;2.15;;
58665;SDS011;44436;52.872;6.520;2022-07-17T02:14:16;4.03;;;1.80;;
58665;SDS011;44436;52.872;6.520;2022-07-17T02:16:42;3.80;;;2.00;;
58665;SDS011;44436;52.872;6.520;2022-07-17T02:19:07;5.38;;;2.10;;
58665;SDS011;44436;52.872;6.520;2022-07-17T02:21:33;8.55;;;2.50;;
58665;SDS011;44436;52.872;6.520;2022-07-17T02:23:58;4.65;;;2.10;;
58665;SDS011;44436;52.872;6.520;2022-07-17T02:26:24;9.35;;;2.30;;
58665;SDS011;44436;52.872;6.520;2022-07-17T02:28:50;4.68;;;2.00;;
58665;SDS011;44436;52.872;6.520;2022-07-17T02:31:15;4.88;;;2.10;;
58665;SDS011;44436;52.872;6.520;2022-07-17T02:33:41;4.75;;;2.33;;
58665;SDS011;44436;52.872;6.520;2022-07-17T02:36:07;5.32;;;2.28;;
58665;SDS011;44436;52.872;6.520;2022-07-17T02:38:32;6.13;;;2.30;;
58665;SDS011;44436;52.872;6.520;2022-07-17T02:40:58;4.68;;;1.77;;
58665;SDS011;44436;52.872;6.520;2022-07-17T02:43:24;4.55;;;2.30;;
58665;SDS011;44436;52.872;6.520;2022-07-17T02:45:50;8.13;;;2.42;;
58665;SDS011;44436;52.872;6.520;2022-07-17T02:48:15;3.10;;;1.90;;
58665;SDS011;44436;52.872;6.520;2022-07-17T02:50:41;4.50;;;1.75;;
58665;SDS011;44436;52.872;6.520;2022-07-17T02:53:07;4.18;;;1.42;;
58665;SDS011;44436;52.872;6.520;2022-07-17T02:55:33;4.43;;;1.52;;
58665;SDS011;44436;52.872;6.520;2022-07-17T02:57:58;3.83;;;1.60;;
58665;SDS011;44436;52.872;6.520;2022-07-17T03:00:24;5.20;;;1.70;;
58665;SDS011;44436;52.872;6.520;2022-07-17T03:02:52;3.60;;;1.48;;
58665;SDS011;44436;52.872;6.520;2022-07-17T03:05:18;4.30;;;2.28;;
58665;SDS011;44436;52.872;6.520;2022-07-17T03:07:44;3.75;;;1.80;;
58665;SDS011;44436;52.872;6.520;2022-07-17T03:10:10;4.97;;;1.80;;
58665;SDS011;44436;52.872;6.520;2022-07-17T03:12:36;4.05;;;1.75;;
58665;SDS011;44436;52.872;6.520;2022-07-17T03:15:02;6.05;;;1.95;;
58665;SDS011;44436;52.872;6.520;2022-07-17T03:17:28;4.85;;;2.20;;
58665;SDS011;44436;52.872;6.520;2022-07-17T03:19:54;3.22;;;1.73;;
58665;SDS011;44436;52.872;6.520;2022-07-17T03:22:20;3.15;;;1.98;;
58665;SDS011;44436;52.872;6.520;2022-07-17T03:24:45;3.88;;;1.90;;
58665;SDS011;44436;52.872;6.520;2022-07-17T03:27:11;5.60;;;2.00;;
58665;SDS011;44436;52.872;6.520;2022-07-17T03:29:37;2.80;;;1.70;;
58665;SDS011;44436;52.872;6.520;2022-07-17T03:32:02;6.07;;;2.30;;
58665;SDS011;44436;52.872;6.520;2022-07-17T03:34:28;4.43;;;2.10;;
58665;SDS011;44436;52.872;6.520;2022-07-17T03:36:54;2.80;;;1.60;;
58665;SDS011;44436;52.872;6.520;2022-07-17T03:39:19;4.30;;;1.80;;
58665;SDS011;44436;52.872;6.520;2022-07-17T03:41:45;2.85;;;1.70;;
58665;SDS011;44436;52.872;6.520;2022-07-17T03:44:10;5.70;;;2.08;;
58665;SDS011;44436;52.872;6.520;2022-07-17T03:46:36;5.65;;;2.20;;
58665;SDS011;44436;52.872;6.520;2022-07-17T03:49:02;3.80;;;1.98;;
58665;SDS011;44436;52.872;6.520;2022-07-17T03:51:27;4.40;;;1.80;;
58665;SDS011;44436;52.872;6.520;2022-07-17T03:53:53;3.47;;;2.05;;
58665;SDS011;44436;52.872;6.520;2022-07-17T03:56:19;3.33;;;1.90;;
58665;SDS011;44436;52.872;6.520;2022-07-17T03:58:44;4.85;;;2.00;;
58665;SDS011;44436;52.872;6.520;2022-07-17T04:01:10;5.63;;;2.38;;
58665;SDS011;44436;52.872;6.520;2022-07-17T04:03:36;5.50;;;2.53;;
58665;SDS011;44436;52.872;6.520;2022-07-17T04:06:02;6.20;;;2.25;;
58665;SDS011;44436;52.872;6.520;2022-07-17T04:08:28;3.80;;;2.30;;
58665;SDS011;44436;52.872;6.520;2022-07-17T04:10:55;5.93;;;2.83;;
58665;SDS011;44436;52.872;6.520;2022-07-17T04:13:20;6.70;;;2.60;;
58665;SDS011;44436;52.872;6.520;2022-07-17T04:15:46;5.18;;;2.35;;
58665;SDS011;44436;52.872;6.520;2022-07-17T04:18:15;6.00;;;2.95;;
58665;SDS011;44436;52.872;6.520;2022-07-17T04:20:41;4.22;;;2.60;;
58665;SDS011;44436;52.872;6.520;2022-07-17T04:23:07;6.47;;;2.70;;
58665;SDS011;44436;52.872;6.520;2022-07-17T04:25:33;4.18;;;2.40;;
58665;SDS011;44436;52.872;6.520;2022-07-17T04:27:59;6.25;;;2.80;;
58665;SDS011;44436;52.872;6.520;2022-07-17T04:30:25;11.45;;;2.65;;
58665;SDS011;44436;52.872;6.520;2022-07-17T04:32:51;4.95;;;2.60;;
58665;SDS011;44436;52.872;6.520;2022-07-17T04:35:16;6.53;;;2.90;;
58665;SDS011;44436;52.872;6.520;2022-07-17T04:37:42;5.95;;;2.60;;
58665;SDS011;44436;52.872;6.520;2022-07-17T04:40:08;7.85;;;2.40;;
58665;SDS011;44436;52.872;6.520;2022-07-17T04:42:34;6.07;;;2.60;;
58665;SDS011;44436;52.872;6.520;2022-07-17T04:45:00;7.93;;;2.63;;
58665;SDS011;44436;52.872;6.520;2022-07-17T04:47:25;6.15;;;2.78;;
58665;SDS011;44436;52.872;6.520;2022-07-17T04:49:51;8.43;;;2.50;;
58665;SDS011;44436;52.872;6.520;2022-07-17T04:52:16;6.57;;;1.90;;
58665;SDS011;44436;52.872;6.520;2022-07-17T04:54:42;6.03;;;2.33;;
58665;SDS011;44436;52.872;6.520;2022-07-17T04:57:08;7.38;;;2.63;;
58665;SDS011;44436;52.872;6.520;2022-07-17T04:59:33;6.60;;;2.60;;
58665;SDS011;44436;52.872;6.520;2022-07-17T05:02:02;7.13;;;2.90;;
58665;SDS011;44436;52.872;6.520;2022-07-17T05:04:28;9.50;;;2.90;;
58665;SDS011;44436;52.872;6.520;2022-07-17T05:06:53;4.70;;;2.10;;
58665;SDS011;44436;52.872;6.520;2022-07-17T05:09:19;6.95;;;2.30;;
58665;SDS011;44436;52.872;6.520;2022-07-17T05:11:44;6.45;;;2.28;;
58665;SDS011;44436;52.872;6.520;2022-07-17T05:14:10;10.00;;;2.40;;
58665;SDS011;44436;52.872;6.520;2022-07-17T05:16:36;5.85;;;2.50;;
58665;SDS011;44436;52.872;6.520;2022-07-17T05:19:01;7.25;;;2.10;;
58665;SDS011;44436;52.872;6.520;2022-07-17T05:21:27;4.65;;;1.98;;
58665;SDS011;44436;52.872;6.520;2022-07-17T05:23:53;7.30;;;2.13;;
58665;SDS011;44436;52.872;6.520;2022-07-17T05:26:18;11.40;;;2.50;;
58665;SDS011;44436;52.872;6.520;2022-07-17T05:28:44;5.00;;;1.95;;
58665;SDS011;44436;52.872;6.520;2022-07-17T05:31:10;7.55;;;2.20;;
58665;SDS011;44436;52.872;6.520;2022-07-17T05:33:35;6.75;;;1.80;;
58665;SDS011;44436;52.872;6.520;2022-07-17T05:36:01;5.97;;;2.05;;
58665;SDS011;44436;52.872;6.520;2022-07-17T05:38:27;8.68;;;2.10;;
58665;SDS011;44436;52.872;6.520;2022-07-17T05:40:53;8.48;;;2.10;;
58665;SDS011;44436;52.872;6.520;2022-07-17T05:43:18;9.18;;;2.08;;
58665;SDS011;44436;52.872;6.520;2022-07-17T05:45:44;7.25;;;2.45;;
58665;SDS011;44436;52.872;6.520;2022-07-17T05:48:09;5.88;;;2.33;;
58665;SDS011;44436;52.872;6.520;2022-07-17T05:50:35;7.40;;;2.03;;
58665;SDS011;44436;52.872;6.520;2022-07-17T05:53:01;6.25;;;1.98;;
58665;SDS011;44436;52.872;6.520;2022-07-17T05:55:26;7.40;;;1.95;;
58665;SDS011;44436;52.872;6.520;2022-07-17T05:57:52;6.13;;;1.85;;
58665;SDS011;44436;52.872;6.520;2022-07-17T06:00:18;8.18;;;2.22;;
58665;SDS011;44436;52.872;6.520;2022-07-17T06:02:44;11.48;;;2.10;;
58665;SDS011;44436;52.872;6.520;2022-07-17T06:05:09;9.77;;;2.17;;
58665;SDS011;44436;52.872;6.520;2022-07-17T06:07:36;6.90;;;2.00;;
58665;SDS011;44436;52.872;6.520;2022-07-17T06:10:02;5.55;;;1.63;;
58665;SDS011;44436;52.872;6.520;2022-07-17T06:12:29;4.88;;;1.30;;
58665;SDS011;44436;52.872;6.520;2022-07-17T06:14:54;9.82;;;2.17;;
58665;SDS011;44436;52.872;6.520;2022-07-17T06:17:20;6.68;;;1.60;;
58665;SDS011;44436;52.872;6.520;2022-07-17T06:19:46;8.25;;;2.00;;
58665;SDS011;44436;52.872;6.520;2022-07-17T06:22:11;6.32;;;1.65;;
58665;SDS011;44436;52.872;6.520;2022-07-17T06:24:37;5.30;;;1.50;;
58665;SDS011;44436;52.872;6.520;2022-07-17T06:27:03;8.07;;;1.77;;
58665;SDS011;44436;52.872;6.520;2022-07-17T06:29:28;4.18;;;1.42;;
58665;SDS011;44436;52.872;6.520;2022-07-17T06:31:54;5.05;;;1.52;;
58665;SDS011;44436;52.872;6.520;2022-07-17T06:34:19;6.32;;;1.80;;
58665;SDS011;44436;52.872;6.520;2022-07-17T06:36:45;5.80;;;1.23;;
58665;SDS011;44436;52.872;6.520;2022-07-17T06:39:11;7.22;;;1.52;;
58665;SDS011;44436;52.872;6.520;2022-07-17T06:41:37;6.63;;;1.30;;
58665;SDS011;44436;52.872;6.520;2022-07-17T06:44:03;4.90;;;1.08;;
58665;SDS011;44436;52.872;6.520;2022-07-17T06:46:28;9.93;;;1.13;;
58665;SDS011;44436;52.872;6.520;2022-07-17T06:48:54;7.45;;;1.52;;
58665;SDS011;44436;52.872;6.520;2022-07-17T06:51:22;9.57;;;1.20;;
58665;SDS011;44436;52.872;6.520;2022-07-17T06:53:49;10.35;;;1.58;;
58665;SDS011;44436;52.872;6.520;2022-07-17T06:56:15;7.53;;;1.25;;
58665;SDS011;44436;52.872;6.520;2022-07-17T06:58:40;7.60;;;1.10;;
58665;SDS011;44436;52.872;6.520;2022-07-17T07:01:06;3.33;;;1.02;;
58665;SDS011;44436;52.872;6.520;2022-07-17T07:03:32;9.95;;;1.20;;
58665;SDS011;44436;52.872;6.520;2022-07-17T07:05:57;9.43;;;1.13;;
58665;SDS011;44436;52.872;6.520;2022-07-17T07:08:24;5.63;;;1.25;;
58665;SDS011;44436;52.872;6.520;2022-07-17T07:10:50;7.75;;;1.15;;
58665;SDS011;44436;52.872;6.520;2022-07-17T07:13:17;7.97;;;1.50;;
58665;SDS011;44436;52.872;6.520;2022-07-17T07:15:42;4.68;;;1.15;;
58665;SDS011;44436;52.872;6.520;2022-07-17T07:18:08;10.48;;;1.25;;
58665;SDS011;44436;52.872;6.520;2022-07-17T07:20:34;6.85;;;1.10;;
58665;SDS011;44436;52.872;6.520;2022-07-17T07:23:00;7.00;;;1.10;;
58665;SDS011;44436;52.872;6.520;2022-07-17T07:25:25;8.07;;;1.35;;
58665;SDS011;44436;52.872;6.520;2022-07-17T07:27:51;4.93;;;0.90;;
58665;SDS011;44436;52.872;6.520;2022-07-17T07:30:17;9.32;;;1.50;;
58665;SDS011;44436;52.872;6.520;2022-07-17T07:32:43;5.95;;;0.90;;
58665;SDS011;44436;52.872;6.520;2022-07-17T07:35:08;10.20;;;1.52;;
58665;SDS011;44436;52.872;6.520;2022-07-17T07:37:35;4.22;;;0.82;;
58665;SDS011;44436;52.872;6.520;2022-07-17T07:40:01;5.43;;;1.02;;
58665;SDS011;44436;52.872;6.520;2022-07-17T07:42:27;3.95;;;0.90;;
58665;SDS011;44436;52.872;6.520;2022-07-17T07:44:53;6.97;;;1.50;;
58665;SDS011;44436;52.872;6.520;2022-07-17T07:47:18;7.53;;;1.00;;
58665;SDS011;44436;52.872;6.520;2022-07-17T07:49:44;7.53;;;1.35;;
58665;SDS011;44436;52.872;6.520;2022-07-17T07:52:10;5.82;;;1.23;;
58665;SDS011;44436;52.872;6.520;2022-07-17T07:54:36;7.28;;;1.20;;
58665;SDS011;44436;52.872;6.520;2022-07-17T07:57:01;7.30;;;1.10;;
58665;SDS011;44436;52.872;6.520;2022-07-17T07:59:28;10.70;;;1.48;;
58665;SDS011;44436;52.872;6.520;2022-07-17T08:01:57;4.97;;;1.10;;
58665;SDS011;44436;52.872;6.520;2022-07-17T08:04:23;6.53;;;1.50;;
58665;SDS011;44436;52.872;6.520;2022-07-17T08:06:49;4.95;;;1.02;;
58665;SDS011;44436;52.872;6.520;2022-07-17T08:09:15;6.00;;;1.05;;
58665;SDS011;44436;52.872;6.520;2022-07-17T08:11:41;9.48;;;1.55;;
58665;SDS011;44436;52.872;6.520;2022-07-17T08:14:06;2.83;;;0.80;;
58665;SDS011;44436;52.872;6.520;2022-07-17T08:16:32;8.95;;;1.20;;
58665;SDS011;44436;52.872;6.520;2022-07-17T08:18:58;5.88;;;0.90;;
58665;SDS011;44436;52.872;6.520;2022-07-17T08:21:23;9.32;;;1.50;;
58665;SDS011;44436;52.872;6.520;2022-07-17T08:23:49;3.00;;;0.80;;
58665;SDS011;44436;52.872;6.520;2022-07-17T08:26:15;3.50;;;1.10;;
58665;SDS011;44436;52.872;6.520;2022-07-17T08:28:40;5.43;;;0.80;;
58665;SDS011;44436;52.872;6.520;2022-07-17T08:31:06;9.27;;;1.17;;
58665;SDS011;44436;52.872;6.520;2022-07-17T08:33:32;7.03;;;1.00;;
58665;SDS011;44436;52.872;6.520;2022-07-17T08:36:01;6.55;;;1.20;;
58665;SDS011;44436;52.872;6.520;2022-07-17T08:38:27;5.18;;;1.00;;
58665;SDS011;44436;52.872;6.520;2022-07-17T08:40:52;5.65;;;1.75;;
58665;SDS011;44436;52.872;6.520;2022-07-17T08:43:19;9.93;;;1.63;;
58665;SDS011;44436;52.872;6.520;2022-07-17T08:45:45;6.53;;;1.00;;
58665;SDS011;44436;52.872;6.520;2022-07-17T08:48:15;5.00;;;1.20;;
58665;SDS011;44436;52.872;6.520;2022-07-17T08:50:42;9.07;;;1.20;;
58665;SDS011;44436;52.872;6.520;2022-07-17T08:53:08;12.30;;;2.13;;
58665;SDS011;44436;52.872;6.520;2022-07-17T08:55:35;4.22;;;0.80;;
58665;SDS011;44436;52.872;6.520;2022-07-17T08:58:00;5.50;;;1.15;;
58665;SDS011;44436;52.872;6.520;2022-07-17T09:00:26;5.38;;;1.20;;
58665;SDS011;44436;52.872;6.520;2022-07-17T09:03:00;6.43;;;1.13;;
58665;SDS011;44436;52.872;6.520;2022-07-17T09:05:38;5.95;;;1.10;;
58665;SDS011;44436;52.872;6.520;2022-07-17T09:08:06;4.68;;;1.25;;
58665;SDS011;44436;52.872;6.520;2022-07-17T09:10:42;4.85;;;1.13;;
58665;SDS011;44436;52.872;6.520;2022-07-17T09:13:29;6.22;;;1.25;;
58665;SDS011;44436;52.872;6.520;2022-07-17T09:16:08;8.70;;;1.30;;
58665;SDS011;44436;52.872;6.520;2022-07-17T09:18:48;3.00;;;0.90;;
58665;SDS011;44436;52.872;6.520;2022-07-17T09:21:25;6.17;;;1.20;;
58665;SDS011;44436;52.872;6.520;2022-07-17T09:26:23;2.60;;;0.73;;
58665;SDS011;44436;52.872;6.520;2022-07-17T09:28:48;9.02;;;1.27;;
58665;SDS011;44436;52.872;6.520;2022-07-17T09:31:23;4.05;;;1.20;;
58665;SDS011;44436;52.872;6.520;2022-07-17T09:33:52;3.75;;;0.90;;
58665;SDS011;44436;52.872;6.520;2022-07-17T09:36:19;2.63;;;0.90;;
58665;SDS011;44436;52.872;6.520;2022-07-17T09:38:45;7.55;;;1.20;;
58665;SDS011;44436;52.872;6.520;2022-07-17T09:41:16;3.85;;;0.90;;
58665;SDS011;44436;52.872;6.520;2022-07-17T09:46:12;5.25;;;1.10;;
58665;SDS011;44436;52.872;6.520;2022-07-17T09:48:40;10.45;;;1.25;;
58665;SDS011;44436;52.872;6.520;2022-07-17T09:51:12;7.03;;;1.10;;
58665;SDS011;44436;52.872;6.520;2022-07-17T09:53:50;3.03;;;0.80;;
58665;SDS011;44436;52.872;6.520;2022-07-17T09:56:19;4.70;;;1.23;;
58665;SDS011;44436;52.872;6.520;2022-07-17T09:58:48;4.15;;;1.00;;
58665;SDS011;44436;52.872;6.520;2022-07-17T10:01:16;3.60;;;1.10;;
58665;SDS011;44436;52.872;6.520;2022-07-17T10:03:43;3.88;;;1.17;;
58665;SDS011;44436;52.872;6.520;2022-07-17T10:06:10;4.50;;;1.20;;
58665;SDS011;44436;52.872;6.520;2022-07-17T10:08:36;4.55;;;1.15;;
58665;SDS011;44436;52.872;6.520;2022-07-17T10:11:07;4.63;;;0.90;;
58665;SDS011;44436;52.872;6.520;2022-07-17T10:13:38;5.22;;;1.40;;
58665;SDS011;44436;52.872;6.520;2022-07-17T10:16:06;5.88;;;1.23;;
58665;SDS011;44436;52.872;6.520;2022-07-17T10:18:34;4.70;;;1.15;;
58665;SDS011;44436;52.872;6.520;2022-07-17T10:21:10;4.43;;;1.00;;
58665;SDS011;44436;52.872;6.520;2022-07-17T10:23:46;4.28;;;1.00;;
58665;SDS011;44436;52.872;6.520;2022-07-17T10:26:33;2.95;;;1.00;;
58665;SDS011;44436;52.872;6.520;2022-07-17T10:29:02;4.07;;;1.00;;
58665;SDS011;44436;52.872;6.520;2022-07-17T10:31:31;6.78;;;1.10;;
58665;SDS011;44436;52.872;6.520;2022-07-17T10:33:58;5.15;;;1.45;;
58665;SDS011;44436;52.872;6.520;2022-07-17T10:38:58;5.40;;;1.30;;
58665;SDS011;44436;52.872;6.520;2022-07-17T10:41:59;3.92;;;1.15;;
58665;SDS011;44436;52.872;6.520;2022-07-17T10:44:30;3.72;;;1.15;;
58665;SDS011;44436;52.872;6.520;2022-07-17T10:47:00;3.03;;;1.10;;
58665;SDS011;44436;52.872;6.520;2022-07-17T10:49:26;6.80;;;1.45;;
58665;SDS011;44436;52.872;6.520;2022-07-17T10:51:52;6.95;;;1.25;;
58665;SDS011;44436;52.872;6.520;2022-07-17T10:54:18;3.60;;;1.20;;
58665;SDS011;44436;52.872;6.520;2022-07-17T10:56:44;3.95;;;1.23;;
58665;SDS011;44436;52.872;6.520;2022-07-17T10:59:10;4.43;;;1.25;;
58665;SDS011;44436;52.872;6.520;2022-07-17T11:01:37;5.70;;;1.23;;
58665;SDS011;44436;52.872;6.520;2022-07-17T11:04:03;5.78;;;1.38;;
58665;SDS011;44436;52.872;6.520;2022-07-17T11:06:37;4.88;;;1.15;;
58665;SDS011;44436;52.872;6.520;2022-07-17T11:09:07;3.95;;;1.20;;
58665;SDS011;44436;52.872;6.520;2022-07-17T11:11:38;4.97;;;1.10;;
58665;SDS011;44436;52.872;6.520;2022-07-17T11:14:16;3.78;;;1.15;;
58665;SDS011;44436;52.872;6.520;2022-07-17T11:16:56;3.38;;;1.15;;
58665;SDS011;44436;52.872;6.520;2022-07-17T11:22:08;4.05;;;1.20;;
58665;SDS011;44436;52.872;6.520;2022-07-17T11:24:39;4.93;;;1.20;;
58665;SDS011;44436;52.872;6.520;2022-07-17T11:29:48;3.22;;;1.10;;
58665;SDS011;44436;52.872;6.520;2022-07-17T11:32:15;4.65;;;1.40;;
58665;SDS011;44436;52.872;6.520;2022-07-17T11:34:41;5.25;;;1.20;;
58665;SDS011;44436;52.872;6.520;2022-07-17T11:37:07;3.70;;;1.10;;
58665;SDS011;44436;52.872;6.520;2022-07-17T11:39:41;7.15;;;1.60;;
58665;SDS011;44436;52.872;6.520;2022-07-17T11:42:11;4.85;;;1.30;;
58665;SDS011;44436;52.872;6.520;2022-07-17T11:44:41;4.88;;;1.33;;
58665;SDS011;44436;52.872;6.520;2022-07-17T11:47:09;4.22;;;1.48;;
58665;SDS011;44436;52.872;6.520;2022-07-17T11:49:36;4.15;;;1.30;;
58665;SDS011;44436;52.872;6.520;2022-07-17T11:52:09;4.82;;;0.98;;
58665;SDS011;44436;52.872;6.520;2022-07-17T11:54:48;4.50;;;1.30;;
58665;SDS011;44436;52.872;6.520;2022-07-17T11:57:16;7.45;;;1.17;;
58665;SDS011;44436;52.872;6.520;2022-07-17T11:59:43;3.63;;;1.23;;
58665;SDS011;44436;52.872;6.520;2022-07-17T12:02:12;4.60;;;1.20;;
58665;SDS011;44436;52.872;6.520;2022-07-17T12:04:52;4.18;;;1.70;;
58665;SDS011;44436;52.872;6.520;2022-07-17T12:07:38;4.18;;;1.33;;
58665;SDS011;44436;52.872;6.520;2022-07-17T12:10:18;3.92;;;1.30;;
58665;SDS011;44436;52.872;6.520;2022-07-17T12:12:54;3.20;;;1.35;;
58665;SDS011;44436;52.872;6.520;2022-07-17T12:15:20;5.63;;;1.23;;
58665;SDS011;44436;52.872;6.520;2022-07-17T12:17:47;6.60;;;1.40;;
58665;SDS011;44436;52.872;6.520;2022-07-17T12:20:13;4.13;;;1.40;;
58665;SDS011;44436;52.872;6.520;2022-07-17T12:22:43;8.43;;;1.85;;
58665;SDS011;44436;52.872;6.520;2022-07-17T12:25:10;5.57;;;1.45;;
58665;SDS011;44436;52.872;6.520;2022-07-17T12:27:46;3.33;;;1.25;;
58665;SDS011;44436;52.872;6.520;2022-07-17T12:30:12;4.72;;;1.48;;
58665;SDS011;44436;52.872;6.520;2022-07-17T12:32:41;4.00;;;1.60;;
58665;SDS011;44436;52.872;6.520;2022-07-17T12:35:07;3.38;;;1.52;;
58665;SDS011;44436;52.872;6.520;2022-07-17T12:37:33;5.15;;;2.05;;
58665;SDS011;44436;52.872;6.520;2022-07-17T12:39:58;3.83;;;1.60;;
58665;SDS011;44436;52.872;6.520;2022-07-17T12:42:24;6.53;;;1.83;;
58665;SDS011;44436;52.872;6.520;2022-07-17T12:44:50;3.30;;;1.60;;
58665;SDS011;44436;52.872;6.520;2022-07-17T12:47:15;4.85;;;1.70;;
58665;SDS011;44436;52.872;6.520;2022-07-17T12:49:41;5.97;;;2.20;;
58665;SDS011;44436;52.872;6.520;2022-07-17T12:52:07;3.22;;;1.60;;
58665;SDS011;44436;52.872;6.520;2022-07-17T12:54:32;3.47;;;1.50;;
58665;SDS011;44436;52.872;6.520;2022-07-17T12:56:58;5.35;;;1.77;;
58665;SDS011;44436;52.872;6.520;2022-07-17T12:59:24;3.90;;;1.83;;
58665;SDS011;44436;52.872;6.520;2022-07-17T13:01:49;3.90;;;1.83;;
58665;SDS011;44436;52.872;6.520;2022-07-17T13:04:15;3.40;;;1.60;;
58665;SDS011;44436;52.872;6.520;2022-07-17T13:06:41;7.90;;;1.58;;
58665;SDS011;44436;52.872;6.520;2022-07-17T13:09:06;5.75;;;2.20;;
58665;SDS011;44436;52.872;6.520;2022-07-17T13:11:32;5.72;;;2.50;;
58665;SDS011;44436;52.872;6.520;2022-07-17T13:13:58;5.20;;;1.92;;
58665;SDS011;44436;52.872;6.520;2022-07-17T13:16:24;3.65;;;2.78;;
58665;SDS011;44436;52.872;6.520;2022-07-17T13:18:50;7.35;;;3.20;;
58665;SDS011;44436;52.872;6.520;2022-07-17T13:21:15;6.32;;;3.10;;
58665;SDS011;44436;52.872;6.520;2022-07-17T13:23:41;6.78;;;2.65;;
58665;SDS011;44436;52.872;6.520;2022-07-17T13:26:07;6.18;;;2.50;;
58665;SDS011;44436;52.872;6.520;2022-07-17T13:28:33;4.47;;;2.40;;
58665;SDS011;44436;52.872;6.520;2022-07-17T13:30:58;4.97;;;2.50;;
58665;SDS011;44436;52.872;6.520;2022-07-17T13:33:25;7.22;;;3.30;;
58665;SDS011;44436;52.872;6.520;2022-07-17T13:35:50;5.03;;;3.00;;
58665;SDS011;44436;52.872;6.520;2022-07-17T13:38:18;4.32;;;2.17;;
58665;SDS011;44436;52.872;6.520;2022-07-17T13:40:44;5.57;;;2.55;;
58665;SDS011;44436;52.872;6.520;2022-07-17T13:43:10;5.03;;;2.70;;
58665;SDS011;44436;52.872;6.520;2022-07-17T13:45:36;4.45;;;2.67;;
58665;SDS011;44436;52.872;6.520;2022-07-17T13:48:03;4.45;;;2.38;;
58665;SDS011;44436;52.872;6.520;2022-07-17T13:50:29;4.70;;;2.85;;
58665;SDS011;44436;52.872;6.520;2022-07-17T13:52:55;5.75;;;2.60;;
58665;SDS011;44436;52.872;6.520;2022-07-17T13:55:20;4.30;;;2.30;;
58665;SDS011;44436;52.872;6.520;2022-07-17T13:57:46;6.70;;;2.90;;
58665;SDS011;44436;52.872;6.520;2022-07-17T14:00:12;5.40;;;2.65;;
58665;SDS011;44436;52.872;6.520;2022-07-17T14:02:38;5.85;;;2.40;;
58665;SDS011;44436;52.872;6.520;2022-07-17T14:05:05;4.60;;;2.42;;
58665;SDS011;44436;52.872;6.520;2022-07-17T14:07:32;5.72;;;2.30;;
58665;SDS011;44436;52.872;6.520;2022-07-17T14:09:59;7.25;;;2.10;;
58665;SDS011;44436;52.872;6.520;2022-07-17T14:12:25;4.97;;;2.78;;
58665;SDS011;44436;52.872;6.520;2022-07-17T14:14:50;4.13;;;2.90;;
58665;SDS011;44436;52.872;6.520;2022-07-17T14:17:16;4.57;;;2.50;;
58665;SDS011;44436;52.872;6.520;2022-07-17T14:19:43;4.68;;;2.63;;
58665;SDS011;44436;52.872;6.520;2022-07-17T14:22:09;5.47;;;2.40;;
58665;SDS011;44436;52.872;6.520;2022-07-17T14:24:35;4.53;;;2.58;;
58665;SDS011;44436;52.872;6.520;2022-07-17T14:27:01;6.18;;;2.25;;
58665;SDS011;44436;52.872;6.520;2022-07-17T14:29:26;5.32;;;2.63;;
58665;SDS011;44436;52.872;6.520;2022-07-17T14:31:52;5.93;;;2.80;;
58665;SDS011;44436;52.872;6.520;2022-07-17T14:34:18;5.85;;;2.80;;
58665;SDS011;44436;52.872;6.520;2022-07-17T14:36:44;4.50;;;2.67;;
58665;SDS011;44436;52.872;6.520;2022-07-17T14:39:10;3.38;;;2.20;;
58665;SDS011;44436;52.872;6.520;2022-07-17T14:41:36;4.93;;;2.10;;
58665;SDS011;44436;52.872;6.520;2022-07-17T14:44:03;5.60;;;2.47;;
58665;SDS011;44436;52.872;6.520;2022-07-17T14:46:28;6.40;;;3.38;;
58665;SDS011;44436;52.872;6.520;2022-07-17T14:48:54;4.60;;;2.67;;
58665;SDS011;44436;52.872;6.520;2022-07-17T14:51:20;5.63;;;2.50;;
58665;SDS011;44436;52.872;6.520;2022-07-17T14:53:46;4.07;;;2.50;;
58665;SDS011;44436;52.872;6.520;2022-07-17T14:56:11;3.75;;;2.05;;
58665;SDS011;44436;52.872;6.520;2022-07-17T14:58:37;6.30;;;2.45;;
58665;SDS011;44436;52.872;6.520;2022-07-17T15:01:03;6.15;;;2.38;;